Time;durP1;ratioP1;P1;durP2;ratioP2;P2;SDS_P1;SDS_P2;PMS_P1;PMS_P2;Temp;Humidity;BMP_temperature;BMP_pressure;BME280_temperature;BME280_humidity;BME280_pressure;Samples;Min_cycle;Max_cycle;Signal;HPM_P1;HPM_P2
2023/07/10 00:00:53;;;;;;;2.40;1.88;;;21.90;99.90;;;;;;5105554;28;20031;-58
2023/07/10 00:03:19;;;;;;;3.75;1.67;;;21.90;99.90;;;;;;5100994;28;20428;-57
2023/07/10 00:05:45;;;;;;;3.85;1.63;;;21.90;99.90;;;;;;5101548;28;20073;-56
2023/07/10 00:08:10;;;;;;;3.13;1.75;;;21.90;99.90;;;;;;5102501;28;20028;-56
2023/07/10 00:10:36;;;;;;;3.72;1.60;;;21.90;99.90;;;;;;5096907;28;20031;-59
2023/07/10 00:13:03;;;;;;;2.80;1.73;;;21.90;99.90;;;;;;5100801;28;20023;-57
2023/07/10 00:15:29;;;;;;;5.00;1.75;;;21.90;99.90;;;;;;5103833;28;20032;-58
2023/07/10 00:17:55;;;;;;;3.33;1.90;;;21.90;99.90;;;;;;5072549;28;20035;-57
2023/07/10 00:20:26;;;;;;;2.83;2.00;;;21.80;99.90;;;;;;5104682;28;20383;-57
2023/07/10 00:22:52;;;;;;;4.32;2.10;;;21.80;99.90;;;;;;5105023;28;20398;-56
2023/07/10 00:25:19;;;;;;;3.22;1.90;;;21.80;99.90;;;;;;5112018;28;20072;-57
2023/07/10 00:27:49;;;;;;;2.17;1.65;;;21.80;99.90;;;;;;5108139;28;20035;-57
2023/07/10 00:30:17;;;;;;;4.10;2.20;;;;;;;;;;5104843;28;20036;-57
2023/07/10 00:32:44;;;;;;;3.33;2.20;;;21.80;99.90;;;;;;5103821;28;20055;-58
2023/07/10 00:35:17;;;;;;;4.55;2.05;;;21.80;99.90;;;;;;5085250;28;20040;-56
2023/07/10 00:38:03;;;;;;;3.58;2.10;;;21.80;99.90;;;;;;5096977;28;20573;-58
2023/07/10 00:40:32;;;;;;;3.42;2.28;;;21.70;99.90;;;;;;5113192;28;20138;-58
2023/07/10 00:43:53;;;;;;;4.53;1.98;;;21.70;99.90;;;;;;5109867;28;20078;-57
2023/07/10 00:46:29;;;;;;;4.20;1.92;;;21.70;99.90;;;;;;5030674;28;20045;-56
2023/07/10 00:49:01;;;;;;;2.88;1.90;;;21.70;99.90;;;;;;5032766;28;20045;-58
2023/07/10 00:51:33;;;;;;;3.53;1.90;;;21.70;99.90;;;;;;5032197;28;20132;-57
2023/07/10 00:54:01;;;;;;;3.42;1.98;;;21.50;99.90;;;;;;5032777;28;20055;-56
2023/07/10 00:56:32;;;;;;;3.47;2.13;;;;;;;;;;5032384;28;20038;-57
2023/07/10 00:58:58;;;;;;;2.55;1.65;;;21.50;99.90;;;;;;5028274;28;20440;-57
2023/07/10 01:01:24;;;;;;;2.83;2.05;;;21.50;99.90;;;;;;5032336;28;20504;-57
2023/07/10 01:03:52;;;;;;;3.38;2.00;;;21.60;99.90;;;;;;4999663;28;20049;-56
2023/07/10 01:06:31;;;;;;;4.10;1.92;;;21.60;99.90;;;;;;5031991;28;20029;-56
2023/07/10 01:09:05;;;;;;;4.53;1.85;;;21.50;99.90;;;;;;5032123;28;20033;-56
2023/07/10 01:11:34;;;;;;;2.80;1.90;;;21.60;99.90;;;;;;5031582;28;20029;-58
2023/07/10 01:14:01;;;;;;;2.40;1.77;;;21.60;99.90;;;;;;5027956;28;20037;-57
2023/07/10 01:16:28;;;;;;;2.15;1.55;;;21.60;99.90;;;;;;5032258;28;20041;-58
2023/07/10 01:18:54;;;;;;;2.70;2.00;;;21.70;99.90;;;;;;5032299;28;20030;-56
2023/07/10 01:21:25;;;;;;;3.60;2.28;;;21.60;99.90;;;;;;5031893;28;20513;-56
2023/07/10 01:23:52;;;;;;;9.48;1.77;;;21.60;99.90;;;;;;5104596;28;20495;-56
2023/07/10 01:26:17;;;;;;;3.88;2.15;;;21.50;99.90;;;;;;5105251;28;20027;-55
2023/07/10 01:28:44;;;;;;;4.35;2.80;;;21.60;99.90;;;;;;5092803;28;20032;-57
2023/07/10 01:31:12;;;;;;;7.60;3.63;;;;;;;;;;5101256;28;20106;-56
2023/07/10 01:33:42;;;;;;;4.45;2.70;;;20.90;99.90;;;;;;5091042;28;20403;-57
2023/07/10 01:36:11;;;;;;;4.43;2.63;;;20.50;99.90;;;;;;5111102;28;20386;-56
2023/07/10 01:38:42;;;;;;;3.40;2.17;;;20.50;99.90;;;;;;5104201;28;20065;-55
2023/07/10 01:41:52;;;;;;;5.50;2.03;;;20.70;99.90;;;;;;5100033;28;20056;-58
2023/07/10 01:44:25;;;;;;;2.90;1.95;;;20.80;99.90;;;;;;5033034;28;20018;-55
2023/07/10 01:46:52;;;;;;;3.70;2.00;;;20.90;99.90;;;;;;5032370;28;20041;-56
2023/07/10 01:49:25;;;;;;;7.05;2.97;;;21.00;99.90;;;;;;5032694;28;20037;-56
2023/07/10 01:51:53;;;;;;;5.43;2.45;;;21.10;99.90;;;;;;5032018;28;20053;-56
2023/07/10 01:54:19;;;;;;;4.15;2.70;;;21.10;99.90;;;;;;4999879;28;20041;-56
2023/07/10 01:56:46;;;;;;;5.30;2.60;;;21.10;99.90;;;;;;5032146;28;20036;-57
2023/07/10 01:59:12;;;;;;;5.60;3.35;;;21.20;99.90;;;;;;5032699;28;20133;-56
2023/07/10 02:01:37;;;;;;;4.13;2.92;;;21.10;99.90;;;;;;5030711;28;20045;-56
2023/07/10 02:04:04;;;;;;;5.60;2.75;;;21.10;99.90;;;;;;5031714;28;20145;-58
2023/07/10 02:06:31;;;;;;;4.18;2.75;;;21.20;99.90;;;;;;5032231;28;20041;-58
2023/07/10 02:08:57;;;;;;;4.78;2.33;;;21.20;99.90;;;;;;5031838;28;20032;-56
2023/07/10 02:11:23;;;;;;;3.63;2.67;;;21.20;99.90;;;;;;5032335;28;20041;-57
2023/07/10 02:13:48;;;;;;;8.13;2.78;;;21.20;99.90;;;;;;5031920;28;20038;-58
2023/07/10 02:16:15;;;;;;;8.40;2.38;;;21.20;99.90;;;;;;5032119;28;20367;-56
2023/07/10 02:18:41;;;;;;;8.07;3.15;;;21.20;99.90;;;;;;5084570;28;20036;-57
2023/07/10 02:21:08;;;;;;;5.30;3.03;;;21.20;99.90;;;;;;5088295;28;20036;-58
2023/07/10 02:23:35;;;;;;;4.60;2.85;;;21.20;99.90;;;;;;5084250;28;20040;-57
2023/07/10 02:26:01;;;;;;;4.65;2.75;;;21.20;99.90;;;;;;5082937;28;20101;-57
2023/07/10 02:28:27;;;;;;;5.38;2.50;;;21.10;99.90;;;;;;5086868;28;20107;-57
2023/07/10 02:30:53;;;;;;;5.05;2.28;;;21.00;99.90;;;;;;5079481;28;20124;-56
2023/07/10 02:33:19;;;;;;;4.60;2.17;;;20.60;99.90;;;;;;5084177;28;20499;-56
2023/07/10 02:35:47;;;;;;;3.58;2.20;;;20.60;99.90;;;;;;5076871;28;20531;-56
2023/07/10 02:38:13;;;;;;;3.17;1.80;;;20.50;99.90;;;;;;5046414;28;20062;-56
2023/07/10 02:40:40;;;;;;;4.60;2.10;;;;;;;;;;5054228;28;20117;-57
2023/07/10 02:43:06;;;;;;;3.03;2.03;;;;;;;;;;5090585;28;20107;-58
2023/07/10 02:45:34;;;;;;;2.25;1.67;;;20.30;99.90;;;;;;5048462;28;20071;-57
2023/07/10 02:48:00;;;;;;;3.60;2.40;;;;;;;;;;5046408;28;20110;-56
2023/07/10 02:50:26;;;;;;;3.10;2.17;;;20.10;99.90;;;;;;5079540;28;20059;-58
2023/07/10 02:52:51;;;;;;;3.90;2.10;;;20.10;99.90;;;;;;5101941;28;20052;-57
2023/07/10 02:55:17;;;;;;;4.07;2.10;;;20.10;99.90;;;;;;5086292;28;20088;-56
2023/07/10 02:57:43;;;;;;;8.30;2.25;;;20.00;99.90;;;;;;5081499;28;20036;-57
2023/07/10 03:00:09;;;;;;;4.70;2.17;;;19.80;99.90;;;;;;5096675;28;20019;-57
2023/07/10 03:02:35;;;;;;;3.08;2.00;;;19.60;99.90;;;;;;5073086;28;20097;-58
2023/07/10 03:05:02;;;;;;;2.67;2.10;;;;;;;;;;5058828;28;20039;-58
2023/07/10 03:07:28;;;;;;;2.78;2.03;;;19.70;99.90;;;;;;5106123;28;20028;-58
2023/07/10 03:09:54;;;;;;;5.10;2.30;;;19.70;99.90;;;;;;5106022;28;20498;-57
2023/07/10 03:12:21;;;;;;;5.95;2.33;;;19.70;99.90;;;;;;5103412;28;20027;-56
2023/07/10 03:14:48;;;;;;;4.80;2.60;;;19.90;99.90;;;;;;5106141;28;20040;-57
2023/07/10 03:17:14;;;;;;;3.42;2.38;;;19.90;99.90;;;;;;5102007;28;20114;-56
2023/07/10 03:19:40;;;;;;;4.82;2.25;;;19.90;99.90;;;;;;5105890;28;20518;-56
2023/07/10 03:22:06;;;;;;;4.20;2.50;;;19.50;99.90;;;;;;5106789;28;20375;-56
2023/07/10 03:24:32;;;;;;;4.20;2.25;;;19.40;99.90;;;;;;5100952;28;20024;-56
2023/07/10 03:26:57;;;;;;;4.50;2.30;;;19.30;99.90;;;;;;5106667;28;20089;-56
2023/07/10 03:29:24;;;;;;;2.80;1.83;;;;;;;;;;5108933;28;20530;-57
2023/07/10 03:31:50;;;;;;;3.15;1.90;;;18.90;99.90;;;;;;5097831;28;20039;-56
2023/07/10 03:34:16;;;;;;;4.18;1.90;;;18.80;99.90;;;;;;5104575;28;20360;-57
2023/07/10 03:36:42;;;;;;;2.90;2.03;;;18.90;99.90;;;;;;5108487;28;20032;-56
2023/07/10 03:39:08;;;;;;;2.50;1.70;;;19.00;99.90;;;;;;5099896;28;20039;-55
2023/07/10 03:41:35;;;;;;;2.58;1.95;;;19.00;99.90;;;;;;5104953;28;20044;-56
2023/07/10 03:44:01;;;;;;;5.53;2.00;;;19.30;99.90;;;;;;5103885;28;20106;-57
2023/07/10 03:46:27;;;;;;;4.50;2.00;;;19.50;99.90;;;;;;5104134;28;20024;-56
2023/07/10 03:48:53;;;;;;;4.13;1.77;;;19.60;99.90;;;;;;5087680;28;20023;-55
2023/07/10 03:51:19;;;;;;;1.83;1.63;;;19.90;99.90;;;;;;5104802;28;20115;-57
2023/07/10 03:53:46;;;;;;;2.75;1.85;;;20.10;99.90;;;;;;5030801;28;20044;-56
2023/07/10 03:56:12;;;;;;;3.38;1.80;;;20.10;99.90;;;;;;5060676;28;20049;-55
2023/07/10 03:58:41;;;;;;;3.75;1.83;;;20.10;99.90;;;;;;5060255;28;20071;-57
2023/07/10 04:01:07;;;;;;;4.90;2.00;;;19.90;99.90;;;;;;5063189;28;20037;-57
2023/07/10 04:03:35;;;;;;;2.63;1.60;;;19.90;99.90;;;;;;5054805;28;20044;-57
2023/07/10 04:06:02;;;;;;;3.45;2.05;;;20.10;99.90;;;;;;5062267;28;20032;-56
2023/07/10 04:08:28;;;;;;;5.20;1.85;;;20.30;99.90;;;;;;5036017;28;20498;-58
2023/07/10 04:10:56;;;;;;;7.97;2.22;;;20.40;99.90;;;;;;5055410;28;20075;-58
2023/07/10 04:13:23;;;;;;;6.10;2.72;;;20.50;99.90;;;;;;5062145;28;20053;-56
2023/07/10 04:15:59;;;;;;;7.00;2.70;;;20.60;99.90;;;;;;5061491;28;20119;-56
2023/07/10 04:18:34;;;;;;;11.10;2.70;;;20.80;99.90;;;;;;5061361;28;20039;-55
2023/07/10 04:21:01;;;;;;;4.95;2.97;;;21.00;99.90;;;;;;5051161;28;20139;-56
2023/07/10 04:23:28;;;;;;;7.82;2.90;;;21.10;99.90;;;;;;5059473;28;20032;-56
2023/07/10 04:25:54;;;;;;;4.60;3.28;;;21.30;99.90;;;;;;5101554;28;20119;-55
2023/07/10 04:28:20;;;;;;;5.38;2.88;;;21.40;99.90;;;;;;5089534;28;20043;-57
2023/07/10 04:30:47;;;;;;;5.05;2.40;;;21.50;99.90;;;;;;5106517;28;20417;-55
2023/07/10 04:33:15;;;;;;;5.82;2.78;;;21.60;99.90;;;;;;5084087;28;20427;-56
2023/07/10 04:35:43;;;;;;;4.88;2.30;;;21.70;99.90;;;;;;5102304;28;20097;-57
2023/07/10 04:38:09;;;;;;;7.70;2.97;;;21.80;99.90;;;;;;5097358;28;20028;-56
2023/07/10 04:40:36;;;;;;;4.80;2.38;;;21.90;99.90;;;;;;5095820;28;20453;-57
2023/07/10 04:43:04;;;;;;;4.72;2.33;;;22.00;99.90;;;;;;5102067;28;20024;-55
2023/07/10 04:45:30;;;;;;;6.00;2.80;;;22.00;99.90;;;;;;5086845;28;20482;-56
2023/07/10 04:47:57;;;;;;;5.13;2.63;;;22.10;99.90;;;;;;5100800;28;20034;-57
2023/07/10 04:50:22;;;;;;;6.72;2.70;;;22.20;99.90;;;;;;5081913;28;20035;-58
2023/07/10 04:52:48;;;;;;;6.45;2.60;;;22.30;99.90;;;;;;5084330;28;20060;-57
2023/07/10 04:55:14;;;;;;;4.93;2.40;;;22.40;99.90;;;;;;5101155;28;20031;-56
2023/07/10 04:57:40;;;;;;;9.93;2.58;;;22.50;99.90;;;;;;5102814;28;20394;-58
2023/07/10 05:00:06;;;;;;;5.47;2.33;;;22.60;99.90;;;;;;5103101;28;20019;-58
2023/07/10 05:02:32;;;;;;;5.85;2.60;;;22.40;99.90;;;;;;5085304;28;20040;-56
2023/07/10 05:04:58;;;;;;;4.82;2.67;;;22.50;99.90;;;;;;5080940;28;20042;-58
2023/07/10 05:07:23;;;;;;;7.65;3.00;;;22.60;99.90;;;;;;5107278;28;20024;-56
2023/07/10 05:09:49;;;;;;;7.90;2.63;;;22.60;99.90;;;;;;5109069;28;20493;-57
2023/07/10 05:12:16;;;;;;;6.65;3.20;;;22.80;99.90;;;;;;5094782;28;20506;-57
2023/07/10 05:14:41;;;;;;;6.22;2.67;;;22.80;99.90;;;;;;5111143;28;20417;-56
2023/07/10 05:17:07;;;;;;;4.68;2.65;;;22.80;99.90;;;;;;5109615;28;20016;-56
2023/07/10 05:19:33;;;;;;;6.07;2.83;;;22.90;99.90;;;;;;5103902;28;20038;-56
2023/07/10 05:22:01;;;;;;;6.53;2.45;;;23.10;99.90;;;;;;5082173;28;20039;-57
2023/07/10 05:24:27;;;;;;;6.70;3.00;;;23.20;99.90;;;;;;5104349;28;20114;-57
2023/07/10 05:26:55;;;;;;;5.78;2.58;;;23.20;99.90;;;;;;5114349;28;20111;-56
2023/07/10 05:29:21;;;;;;;4.85;2.67;;;23.30;99.90;;;;;;5106236;28;20028;-57
2023/07/10 05:31:46;;;;;;;3.88;2.70;;;23.30;99.90;;;;;;5108848;28;20026;-56
2023/07/10 05:34:12;;;;;;;6.88;3.10;;;23.40;99.90;;;;;;5102723;27;20092;-56
2023/07/10 05:36:38;;;;;;;3.30;2.15;;;23.50;99.90;;;;;;5109152;28;20028;-56
2023/07/10 05:39:04;;;;;;;6.65;2.67;;;23.70;99.90;;;;;;5108101;27;20538;-57
2023/07/10 05:41:29;;;;;;;4.28;2.42;;;23.80;99.90;;;;;;5077855;28;20047;-58
2023/07/10 05:43:55;;;;;;;4.47;2.35;;;24.00;99.90;;;;;;5087015;28;20028;-57
2023/07/10 05:46:21;;;;;;;4.93;2.80;;;24.00;99.90;;;;;;5088088;28;20374;-57
2023/07/10 05:48:47;;;;;;;4.68;2.55;;;23.80;99.90;;;;;;5086116;28;20041;-57
2023/07/10 05:51:12;;;;;;;4.45;2.78;;;24.00;99.90;;;;;;5050657;28;20396;-57
2023/07/10 05:53:38;;;;;;;4.65;2.97;;;23.90;99.90;;;;;;5084937;28;20087;-56
2023/07/10 05:56:04;;;;;;;4.68;2.65;;;;;;;;;;5085465;28;20020;-56
2023/07/10 05:58:34;;;;;;;5.20;2.88;;;24.20;99.90;;;;;;5085159;28;20530;-57
2023/07/10 06:01:00;;;;;;;3.60;2.40;;;24.40;99.90;;;;;;5081846;28;20044;-56
2023/07/10 06:03:29;;;;;;;5.97;3.17;;;24.50;99.90;;;;;;5084336;28;20032;-57
2023/07/10 06:06:01;;;;;;;3.35;2.50;;;24.50;99.90;;;;;;5081731;28;20376;-56
2023/07/10 06:08:28;;;;;;;3.67;2.55;;;24.60;99.90;;;;;;5090321;28;20032;-56
2023/07/10 06:10:54;;;;;;;3.92;2.80;;;24.80;99.90;;;;;;5083431;28;20073;-56
2023/07/10 06:13:20;;;;;;;6.63;2.70;;;24.90;99.90;;;;;;5080771;28;20070;-57
2023/07/10 06:15:48;;;;;;;5.60;2.88;;;;;;;;;;5088696;28;20027;-56
2023/07/10 06:18:15;;;;;;;7.10;2.90;;;24.90;99.90;;;;;;5087808;28;20066;-57
2023/07/10 06:20:41;;;;;;;7.95;2.70;;;25.00;99.90;;;;;;5078020;28;20021;-57
2023/07/10 06:23:07;;;;;;;6.85;3.20;;;;;;;;;;5082789;28;20031;-57
2023/07/10 06:25:33;;;;;;;5.40;2.90;;;25.50;99.90;;;;;;5086171;28;20089;-57
2023/07/10 06:27:58;;;;;;;5.72;2.55;;;25.30;99.90;;;;;;5080558;28;20025;-57
2023/07/10 06:30:24;;;;;;;5.32;2.97;;;25.50;99.90;;;;;;5088630;28;20039;-56
2023/07/10 06:32:51;;;;;;;4.32;2.60;;;;;;;;;;5083883;28;20487;-56
2023/07/10 06:35:17;;;;;;;3.83;2.35;;;;;;;;;;5097274;27;20425;-56
2023/07/10 06:37:44;;;;;;;3.72;3.15;;;;;;;;;;5079743;28;20111;-56
2023/07/10 06:40:13;;;;;;;3.75;2.65;;;25.90;99.90;;;;;;5091180;28;20437;-57
2023/07/10 06:42:40;;;;;;;3.90;2.92;;;;;;;;;;5104111;28;20383;-56
2023/07/10 06:45:06;;;;;;;4.88;2.75;;;25.80;99.90;;;;;;5107431;28;20080;-57
2023/07/10 06:47:33;;;;;;;4.80;2.80;;;;;;;;;;5060876;28;20040;-58
2023/07/10 06:49:59;;;;;;;7.63;3.08;;;;;;;;;;5098220;28;20035;-57
2023/07/10 06:52:26;;;;;;;9.32;3.13;;;;;;;;;;5086873;28;20522;-57
2023/07/10 06:54:52;;;;;;;3.53;2.28;;;;;;;;;;5102785;28;20045;-58
2023/07/10 06:57:19;;;;;;;4.82;3.03;;;;;;;;;;5108523;28;20020;-56
2023/07/10 06:59:45;;;;;;;5.35;2.95;;;;;;;;;;5096674;28;20078;-57
2023/07/10 07:02:12;;;;;;;4.97;3.20;;;;;;;;;;5102878;28;20038;-56
2023/07/10 07:04:38;;;;;;;7.00;3.08;;;;;;;;;;5102144;28;20067;-57
2023/07/10 07:07:05;;;;;;;4.25;3.22;;;;;;;;;;5099069;28;20036;-57
2023/07/10 07:09:31;;;;;;;5.82;2.97;;;;;;;;;;5103258;28;20027;-57
2023/07/10 07:11:58;;;;;;;6.22;3.50;;;;;;;;;;5085233;28;20046;-57
2023/07/10 07:14:25;;;;;;;4.80;3.08;;;;;;;;;;5104512;27;20036;-56
2023/07/10 07:16:51;;;;;;;4.35;3.08;;;;;;;;;;5111069;28;20058;-56
2023/07/10 07:19:17;;;;;;;4.65;3.22;;;;;;;;;;5103067;28;20039;-56
2023/07/10 07:21:43;;;;;;;4.18;3.00;;;;;;;;;;5107944;28;20030;-57
2023/07/10 07:24:09;;;;;;;4.68;3.25;;;;;;;;;;5099046;28;20024;-57
2023/07/10 07:26:36;;;;;;;4.90;3.00;;;;;;;;;;5105437;28;20031;-57
2023/07/10 07:29:02;;;;;;;4.38;2.88;;;;;;;;;;5108094;28;20028;-58
2023/07/10 07:31:28;;;;;;;4.00;3.10;;;;;;;;;;5101970;28;20371;-57
2023/07/10 07:33:54;;;;;;;6.20;3.00;;;;;;;;;;5103709;28;20039;-57
2023/07/10 07:36:20;;;;;;;4.05;3.05;;;28.40;99.90;;;;;;5105541;28;20039;-57
2023/07/10 07:38:46;;;;;;;5.22;3.10;;;28.30;99.90;;;;;;5098600;28;20028;-57
2023/07/10 07:41:13;;;;;;;4.93;3.28;;;28.50;99.90;;;;;;5079361;28;20043;-57
2023/07/10 07:43:39;;;;;;;5.70;3.42;;;;;;;;;;5108472;28;20057;-57
2023/07/10 07:46:05;;;;;;;7.60;3.40;;;28.70;99.90;;;;;;5080712;28;20135;-57
2023/07/10 07:48:31;;;;;;;5.53;3.38;;;28.70;99.90;;;;;;5077987;28;20143;-58
2023/07/10 07:51:01;;;;;;;6.13;3.47;;;;;;;;;;5100648;28;20024;-57
2023/07/10 07:53:29;;;;;;;6.35;3.00;;;28.80;99.90;;;;;;5097204;28;20040;-61
2023/07/10 07:55:55;;;;;;;4.35;3.30;;;28.80;99.90;;;;;;5097260;28;20433;-58
2023/07/10 07:58:20;;;;;;;4.75;3.38;;;28.70;99.90;;;;;;5105566;28;20165;-57
2023/07/10 08:00:47;;;;;;;5.65;3.00;;;;;;;;;;5097205;28;20027;-56
2023/07/10 08:03:12;;;;;;;5.75;3.47;;;29.00;99.90;;;;;;5095307;28;20031;-60
2023/07/10 08:05:39;;;;;;;5.55;3.58;;;29.00;99.90;;;;;;5103682;28;20024;-56
2023/07/10 08:08:07;;;;;;;4.25;3.10;;;29.10;99.90;;;;;;5101087;28;20031;-54
2023/07/10 08:10:39;;;;;;;4.35;3.03;;;29.10;99.90;;;;;;5105122;28;20036;-63
2023/07/10 08:13:05;;;;;;;4.53;3.03;;;;;;;;;;5098268;28;20032;-59
2023/07/10 08:15:32;;;;;;;8.02;3.35;;;;;;;;;;5103161;28;20024;-58
2023/07/10 08:17:58;;;;;;;4.97;3.13;;;;;;;;;;5096398;28;20043;-55
2023/07/10 08:20:24;;;;;;;5.38;3.30;;;;;;;;;;5105408;28;20115;-56
2023/07/10 08:22:50;;;;;;;4.22;3.05;;;;;;;;;;5100516;28;20028;-55
2023/07/10 08:25:16;;;;;;;3.92;3.00;;;29.90;99.90;;;;;;5096773;28;20381;-54
2023/07/10 08:27:43;;;;;;;4.57;3.33;;;29.90;99.90;;;;;;5107546;28;20020;-57
2023/07/10 08:30:10;;;;;;;4.53;3.17;;;;;;;;;;5081446;28;20082;-56
2023/07/10 08:32:36;;;;;;;4.80;3.33;;;30.10;99.90;;;;;;5102380;28;20078;-55
2023/07/10 08:35:02;;;;;;;4.70;3.03;;;30.20;99.90;;;;;;5101288;28;20056;-54
2023/07/10 08:37:28;;;;;;;5.70;3.50;;;30.20;99.90;;;;;;5099757;28;20027;-56
2023/07/10 08:39:56;;;;;;;9.20;3.70;;;30.10;99.90;;;;;;5081865;28;20039;-54
2023/07/10 08:42:28;;;;;;;4.32;2.88;;;30.10;99.90;;;;;;5104933;28;20036;-58
2023/07/10 08:44:55;;;;;;;5.15;3.13;;;30.20;99.90;;;;;;5101990;28;20118;-58
2023/07/10 08:47:31;;;;;;;6.40;3.33;;;30.50;99.90;;;;;;5107149;27;20028;-55
2023/07/10 08:50:03;;;;;;;5.00;2.88;;;;;;;;;;5056816;28;21150;-55
2023/07/10 08:53:01;;;;;;;5.28;3.15;;;31.20;99.90;;;;;;5103453;28;20541;-55
2023/07/10 08:55:37;;;;;;;6.10;3.17;;;;;;;;;;5007606;28;20087;-58
2023/07/10 08:58:03;;;;;;;5.13;2.70;;;31.30;99.90;;;;;;5007059;28;20041;-59
2023/07/10 09:00:40;;;;;;;4.53;3.05;;;31.30;99.90;;;;;;5006975;28;20046;-58
2023/07/10 09:03:35;;;;;;;4.07;3.13;;;31.40;99.90;;;;;;5001116;28;20113;-58
2023/07/10 09:06:03;;;;;;;4.85;3.10;;;31.50;99.90;;;;;;5009930;28;20456;-56
2023/07/10 09:08:32;;;;;;;4.68;3.05;;;31.60;99.90;;;;;;5007225;28;20029;-58
2023/07/10 09:11:02;;;;;;;4.38;2.97;;;31.60;99.90;;;;;;5005249;28;20088;-55
2023/07/10 09:13:42;;;;;;;5.65;3.42;;;31.90;99.90;;;;;;5010443;28;20096;-59
2023/07/10 09:16:15;;;;;;;5.10;3.00;;;31.90;99.90;;;;;;5003761;28;20053;-54
2023/07/10 09:18:59;;;;;;;4.30;3.00;;;31.90;99.90;;;;;;5004464;28;20041;-59
2023/07/10 09:21:31;;;;;;;5.55;2.90;;;32.00;99.90;;;;;;5006885;28;20031;-56
2023/07/10 09:23:57;;;;;;;;;;;32.20;99.90;;;;;;5002450;28;20030;-58
2023/07/10 09:26:39;;;;;;;5.78;3.40;;;32.10;99.90;;;;;;5006451;28;19913;-57
2023/07/10 09:29:11;;;;;;;4.03;2.97;;;32.10;99.90;;;;;;5008600;28;20225;-60
2023/07/10 09:31:46;;;;;;;;;;;32.00;99.90;;;;;;5032355;28;20050;-60
2023/07/10 09:34:12;;;;;;;4.68;3.05;;;32.00;99.90;;;;;;5105076;28;19911;-57
2023/07/10 09:36:38;;;;;;;3.75;2.67;;;32.20;99.90;;;;;;5102270;28;20481;-60
2023/07/10 09:39:04;;;;;;;4.75;2.65;;;32.10;99.90;;;;;;5106093;27;20052;-59
2023/07/10 09:41:31;;;;;;;4.68;3.13;;;;;;;;;;5028427;28;20057;-57
2023/07/10 09:43:57;;;;;;;5.53;2.80;;;;;;;;;;5064303;28;20119;-57
2023/07/10 09:46:24;;;;;;;6.57;3.00;;;;;;;;;;5065341;28;20428;-57
2023/07/10 09:48:53;;;;;;;5.07;2.78;;;32.60;99.90;;;;;;5025413;28;20051;-59
2023/07/10 09:51:19;;;;;;;3.55;2.70;;;32.60;99.90;;;;;;5020414;28;20042;-56
2023/07/10 09:53:50;;;;;;;5.38;3.42;;;;;;;;;;5020996;28;20107;-57
2023/07/10 09:56:20;;;;;;;3.17;2.35;;;;;;;;;;5022754;28;20081;-57
2023/07/10 09:58:47;;;;;;;5.75;3.00;;;;;;;;;;5020447;28;20033;-56
2023/07/10 10:01:13;;;;;;;4.28;3.05;;;;;;;;;;5023379;28;20073;-56
2023/07/10 10:03:43;;;;;;;6.95;3.15;;;;;;;;;;5028505;28;20050;-58
2023/07/10 10:06:26;;;;;;;3.30;2.35;;;;;;;;;;5004441;28;20033;-56
2023/07/10 10:08:52;;;;;;;4.00;2.80;;;33.20;99.90;;;;;;5027310;28;20029;-59
2023/07/10 10:11:28;;;;;;;4.22;2.70;;;;;;;;;;5027189;28;20414;-55
2023/07/10 10:13:56;;;;;;;3.08;2.20;;;;;;;;;;5083859;28;20472;-59
2023/07/10 10:16:57;;;;;;;4.85;2.95;;;;;;;;;;5085381;28;20020;-58
2023/07/10 10:19:26;;;;;;;4.40;2.70;;;;;;;;;;5011329;28;20041;-58
2023/07/10 10:21:53;;;;;;;3.72;2.28;;;;;;;;;;5012135;28;20195;-59
2023/07/10 10:24:19;;;;;;;2.95;2.28;;;;;;;;;;5011239;28;20508;-55
2023/07/10 10:26:46;;;;;;;4.53;2.33;;;;;;;;;;4943452;28;20041;-55
2023/07/10 10:29:15;;;;;;;3.47;2.10;;;;;;;;;;5028328;28;20029;-57
2023/07/10 10:32:03;;;;;;;3.40;2.65;;;33.80;94.00;;;;;;5031204;28;20459;-59
2023/07/10 10:34:52;;;;;;;4.22;2.92;;;33.80;93.60;;;;;;4997380;28;20069;-57
2023/07/10 10:37:31;;;;;;;3.60;2.40;;;34.10;94.20;;;;;;5029082;28;20144;-59
2023/07/10 10:40:02;;;;;;;2.58;2.13;;;34.00;92.80;;;;;;5028815;28;20052;-60
2023/07/10 10:43:10;;;;;;;11.02;2.47;;;34.00;93.60;;;;;;5030594;28;21113;-56
2023/07/10 10:46:14;;;;;;;4.10;2.40;;;34.30;92.00;;;;;;5008272;28;20030;-59
2023/07/10 10:48:58;;;;;;;3.22;2.33;;;34.40;93.00;;;;;;4955687;28;20046;-57
2023/07/10 10:51:36;;;;;;;3.70;2.50;;;;;;;;;;4953339;28;20047;-59
2023/07/10 10:54:19;;;;;;;6.32;2.42;;;34.70;91.90;;;;;;4985563;28;20057;-55
2023/07/10 10:57:03;;;;;;;3.60;2.20;;;34.80;91.80;;;;;;4994138;28;20030;-56
2023/07/10 10:59:37;;;;;;;2.90;2.20;;;35.00;90.70;;;;;;4999610;28;20525;-56
2023/07/10 11:02:27;;;;;;;3.20;2.30;;;35.10;90.50;;;;;;4993882;28;20088;-59
2023/07/10 11:05:29;;;;;;;3.67;2.60;;;35.10;89.80;;;;;;4991713;28;20072;-56
2023/07/10 11:07:57;;;;;;;3.13;2.05;;;34.80;91.60;;;;;;4991637;28;20042;-57
2023/07/10 11:10:31;;;;;;;3.53;2.20;;;34.60;91.40;;;;;;4992153;28;20560;-56
2023/07/10 11:12:58;;;;;;;4.13;2.50;;;34.50;89.40;;;;;;4991750;28;20044;-59
2023/07/10 11:15:26;;;;;;;6.75;3.42;;;34.70;89.00;;;;;;4993630;28;20086;-58
2023/07/10 11:17:54;;;;;;;4.40;2.80;;;34.60;85.90;;;;;;4993587;28;20070;-60
2023/07/10 11:20:21;;;;;;;4.68;2.60;;;35.00;88.00;;;;;;4992464;28;20034;-56
2023/07/10 11:22:55;;;;;;;3.95;2.47;;;34.90;89.60;;;;;;4999262;28;20404;-54
2023/07/10 11:25:32;;;;;;;3.22;2.50;;;34.90;89.10;;;;;;5102163;28;20054;-57
2023/07/10 11:28:02;;;;;;;3.63;2.55;;;35.10;87.80;;;;;;5062424;28;20051;-55
2023/07/10 11:30:34;;;;;;;3.95;2.72;;;35.50;89.80;;;;;;5103943;28;20063;-58
2023/07/10 11:33:20;;;;;;;6.05;2.30;;;35.80;88.40;;;;;;5111428;28;20035;-58
2023/07/10 11:36:14;;;;;;;6.97;2.40;;;35.40;87.50;;;;;;5109713;28;20383;-57
2023/07/10 11:38:58;;;;;;;4.40;2.50;;;35.60;87.90;;;;;;5103306;28;20063;-56
2023/07/10 11:41:31;;;;;;;2.80;2.10;;;35.60;87.80;;;;;;5109007;28;20464;-56
2023/07/10 11:44:19;;;;;;;8.77;2.38;;;35.50;89.20;;;;;;5087295;28;20039;-57
2023/07/10 11:46:56;;;;;;;2.75;2.25;;;35.40;87.80;;;;;;5104053;28;20068;-56
2023/07/10 11:49:26;;;;;;;3.65;2.60;;;35.50;87.00;;;;;;5103143;28;20043;-56
2023/07/10 11:52:14;;;;;;;4.97;2.50;;;35.60;87.40;;;;;;5108196;28;20387;-57
2023/07/10 11:54:45;;;;;;;2.75;2.05;;;35.90;87.60;;;;;;5103137;28;20063;-58
2023/07/10 11:57:15;;;;;;;3.38;2.10;;;;;;;;;;5102743;28;20526;-57
2023/07/10 11:59:54;;;;;;;2.50;2.20;;;36.10;85.10;;;;;;5094891;28;20157;-56
2023/07/10 12:02:31;;;;;;;4.05;2.65;;;35.90;85.00;;;;;;5091511;28;20084;-57
2023/07/10 12:05:22;;;;;;;4.80;2.40;;;35.90;84.80;;;;;;5104332;28;20019;-58
2023/07/10 12:08:13;;;;;;;3.25;2.17;;;35.90;83.90;;;;;;5102773;28;20503;-59
2023/07/10 12:10:50;;;;;;;;;;;36.10;84.10;;;;;;5104196;28;20031;-57
2023/07/10 12:13:27;;;;;;;3.40;2.08;;;36.30;90.60;;;;;;5103148;28;20351;-57
2023/07/10 12:15:55;;;;;;;3.33;1.95;;;36.40;83.20;;;;;;5101317;28;20383;-57
2023/07/10 12:18:23;;;;;;;3.05;2.25;;;;;;;;;;5107999;28;20024;-57
2023/07/10 12:20:51;;;;;;;3.55;2.40;;;;;;;;;;5105352;28;20036;-58
2023/07/10 12:23:17;;;;;;;3.33;1.95;;;36.70;82.80;;;;;;5102043;28;20102;-57
2023/07/10 12:25:47;;;;;;;5.10;2.05;;;36.80;82.70;;;;;;5110169;28;20044;-58
2023/07/10 12:28:15;;;;;;;5.38;2.47;;;36.60;81.30;;;;;;5105659;28;20032;-58
2023/07/10 12:30:41;;;;;;;2.95;2.22;;;36.50;81.40;;;;;;5106312;28;20027;-58
2023/07/10 12:33:45;;;;;;;3.50;2.45;;;36.40;82.60;;;;;;5098721;28;20044;-58
2023/07/10 12:36:38;;;;;;;5.90;2.42;;;36.70;81.80;;;;;;5061024;28;20032;-57
2023/07/10 12:39:06;;;;;;;4.03;2.42;;;36.90;80.60;;;;;;4971570;28;20039;-58
2023/07/10 12:41:34;;;;;;;4.07;2.42;;;36.90;81.30;;;;;;4973891;28;20476;-56
2023/07/10 12:44:02;;;;;;;4.78;2.70;;;36.90;81.40;;;;;;4969576;28;20039;-58
2023/07/10 12:46:29;;;;;;;3.70;2.00;;;36.90;81.30;;;;;;4973645;28;20043;-56
2023/07/10 12:49:20;;;;;;;2.67;1.90;;;36.80;81.60;;;;;;4973707;28;20042;-60
2023/07/10 12:51:49;;;;;;;3.27;2.60;;;36.80;80.30;;;;;;4967805;28;20434;-57
2023/07/10 12:54:29;;;;;;;8.50;2.38;;;36.80;81.80;;;;;;4973981;28;20537;-57
2023/07/10 12:56:56;;;;;;;2.92;2.30;;;37.00;81.40;;;;;;4972604;28;20426;-56
2023/07/10 12:59:33;;;;;;;4.35;2.40;;;36.40;81.50;;;;;;4973686;28;20039;-57
2023/07/10 13:02:02;;;;;;;5.35;2.20;;;36.50;81.60;;;;;;4949199;28;20110;-55
2023/07/10 13:04:31;;;;;;;4.05;2.38;;;36.50;80.60;;;;;;4973856;28;20384;-56
2023/07/10 13:07:05;;;;;;;2.92;2.30;;;35.80;80.40;;;;;;4973538;28;20043;-56
2023/07/10 13:09:32;;;;;;;4.90;2.20;;;36.30;80.80;;;;;;4973714;28;20055;-57
2023/07/10 13:11:58;;;;;;;4.38;2.13;;;36.30;80.40;;;;;;4997694;28;20084;-56
2023/07/10 13:14:30;;;;;;;6.88;2.30;;;36.20;81.10;;;;;;5010861;28;20056;-58
2023/07/10 13:16:58;;;;;;;5.03;2.45;;;36.40;81.00;;;;;;5079160;28;20047;-55
2023/07/10 13:19:24;;;;;;;5.07;2.30;;;36.60;81.10;;;;;;5105366;28;20423;-57
2023/07/10 13:21:50;;;;;;;2.63;2.20;;;36.80;81.10;;;;;;5108002;28;20395;-56
2023/07/10 13:24:16;;;;;;;3.88;2.42;;;36.90;79.30;;;;;;5101611;28;20721;-57